Obetz, Ohio
Current Conditions -  °F | °C
As of 4:35 AM on Friday 31 Oct 2014 (Local Time) from KLCK Reporting Station
Light Rain Light Rain  
Wind Chill: 38°   Ceiling: 5500
Heat Index: 38°   Visibility: 10mi
Dew Point: 35°   Wind: 3mph
Humidity: 89%   Direction: 190°S
Pressure: 30"   Gusts: NA
Location:  39.8938°N, 82.9624°W
Report Text: KLCK 310835Z AUTO 19003KT 10SM -RA SCT046 BKN055 OVC070 04/02 A3000 RMK AO2 T00350018
Loading
Personal Weather Stations






























Interactive Weather Map
Tropical Storm Tracking
New forecast layout! Learn more

10-Day Weather Forecast

Advertisements
Track Severe Weather on mobile